sensor_id;sensor_type;location;lat;lon;timestamp;pressure;altitude;pressure_sealevel;temperature;humidity
49515;BME280;35415;47.870;16.058;2022-10-26T00:01:37;97751.94;;;8.85;96.98
49515;BME280;35415;47.870;16.058;2022-10-26T00:04:04;97751.28;;;8.78;97.27
49515;BME280;35415;47.870;16.058;2022-10-26T00:06:31;97742.34;;;8.72;97.56
49515;BME280;35415;47.870;16.058;2022-10-26T00:08:58;97745.81;;;8.72;97.36
49515;BME280;35415;47.870;16.058;2022-10-26T00:11:25;97756.00;;;8.70;97.66
49515;BME280;35415;47.870;16.058;2022-10-26T00:13:53;97754.38;;;8.69;97.92
49515;BME280;35415;47.870;16.058;2022-10-26T00:16:23;97753.78;;;8.67;97.94
49515;BME280;35415;47.870;16.058;2022-10-26T00:18:51;97737.94;;;8.66;97.95
49515;BME280;35415;47.870;16.058;2022-10-26T00:21:18;97749.25;;;8.68;98.10
49515;BME280;35415;47.870;16.058;2022-10-26T00:23:45;97744.38;;;8.65;98.17
49515;BME280;35415;47.870;16.058;2022-10-26T00:26:12;97746.25;;;8.64;98.25
49515;BME280;35415;47.870;16.058;2022-10-26T00:28:39;97750.47;;;8.60;98.33
49515;BME280;35415;47.870;16.058;2022-10-26T00:31:11;97746.16;;;8.59;98.29
49515;BME280;35415;47.870;16.058;2022-10-26T00:33:39;97751.53;;;8.59;97.97
49515;BME280;35415;47.870;16.058;2022-10-26T00:36:07;97752.59;;;8.58;98.16
49515;BME280;35415;47.870;16.058;2022-10-26T00:38:35;97743.38;;;8.54;98.15
49515;BME280;35415;47.870;16.058;2022-10-26T00:41:02;97750.38;;;8.55;98.49
49515;BME280;35415;47.870;16.058;2022-10-26T00:43:34;97744.19;;;8.55;98.42
49515;BME280;35415;47.870;16.058;2022-10-26T00:46:03;97740.44;;;8.56;97.98
49515;BME280;35415;47.870;16.058;2022-10-26T00:48:35;97745.25;;;8.54;98.17
49515;BME280;35415;47.870;16.058;2022-10-26T00:51:07;97736.81;;;8.45;98.27
49515;BME280;35415;47.870;16.058;2022-10-26T00:53:35;97743.53;;;8.48;98.47
49515;BME280;35415;47.870;16.058;2022-10-26T00:56:03;97741.34;;;8.44;98.25
49515;BME280;35415;47.870;16.058;2022-10-26T00:58:31;97742.66;;;8.42;98.35
49515;BME280;35415;47.870;16.058;2022-10-26T01:00:58;97733.56;;;8.43;98.07
49515;BME280;35415;47.870;16.058;2022-10-26T01:03:26;97740.44;;;8.39;98.07
49515;BME280;35415;47.870;16.058;2022-10-26T01:05:56;97734.16;;;8.33;97.95
49515;BME280;35415;47.870;16.058;2022-10-26T01:08:24;97735.44;;;8.31;97.98
49515;BME280;35415;47.870;16.058;2022-10-26T01:10:53;97731.16;;;8.30;98.21
49515;BME280;35415;47.870;16.058;2022-10-26T01:13:22;97724.41;;;8.27;97.84
49515;BME280;35415;47.870;16.058;2022-10-26T01:15:57;97715.78;;;8.25;98.22
49515;BME280;35415;47.870;16.058;2022-10-26T01:18:36;97721.63;;;8.22;98.44
49515;BME280;35415;47.870;16.058;2022-10-26T01:21:18;97716.66;;;8.14;98.60
49515;BME280;35415;47.870;16.058;2022-10-26T01:24:09;97712.44;;;8.18;98.42
49515;BME280;35415;47.870;16.058;2022-10-26T01:26:56;97720.47;;;8.18;98.16
49515;BME280;35415;47.870;16.058;2022-10-26T01:29:55;97716.09;;;8.12;98.22
49515;BME280;35415;47.870;16.058;2022-10-26T01:32:32;97721.94;;;8.09;98.53
49515;BME280;35415;47.870;16.058;2022-10-26T01:35:05;97724.84;;;8.07;98.21
49515;BME280;35415;47.870;16.058;2022-10-26T01:37:35;97723.56;;;8.10;97.84
49515;BME280;35415;47.870;16.058;2022-10-26T01:40:08;97721.56;;;8.05;98.06
49515;BME280;35415;47.870;16.058;2022-10-26T01:42:41;97718.00;;;8.00;98.69
49515;BME280;35415;47.870;16.058;2022-10-26T01:45:11;97715.81;;;7.97;99.56
49515;BME280;35415;47.870;16.058;2022-10-26T01:47:42;97702.56;;;7.90;99.48
49515;BME280;35415;47.870;16.058;2022-10-26T01:50:10;97710.59;;;7.90;99.49
49515;BME280;35415;47.870;16.058;2022-10-26T01:52:38;97701.41;;;7.86;99.48
49515;BME280;35415;47.870;16.058;2022-10-26T01:55:39;97688.50;;;7.83;98.91
49515;BME280;35415;47.870;16.058;2022-10-26T01:58:20;97697.91;;;7.85;99.05
49515;BME280;35415;47.870;16.058;2022-10-26T02:00:55;97695.72;;;7.82;99.22
49515;BME280;35415;47.870;16.058;2022-10-26T02:03:30;97693.75;;;7.78;99.40
49515;BME280;35415;47.870;16.058;2022-10-26T02:06:08;97688.19;;;7.68;99.36
49515;BME280;35415;47.870;16.058;2022-10-26T02:08:53;97699.59;;;7.75;98.96
49515;BME280;35415;47.870;16.058;2022-10-26T02:11:29;97687.72;;;7.71;99.42
49515;BME280;35415;47.870;16.058;2022-10-26T02:14:11;97689.59;;;7.70;99.32
49515;BME280;35415;47.870;16.058;2022-10-26T02:16:43;97681.38;;;7.60;99.27
49515;BME280;35415;47.870;16.058;2022-10-26T02:19:24;97688.13;;;7.63;99.26
49515;BME280;35415;47.870;16.058;2022-10-26T02:21:57;97686.25;;;7.63;99.40
49515;BME280;35415;47.870;16.058;2022-10-26T02:24:27;97689.75;;;7.64;99.04
49515;BME280;35415;47.870;16.058;2022-10-26T02:26:57;97669.72;;;7.54;99.17
49515;BME280;35415;47.870;16.058;2022-10-26T02:29:27;97682.91;;;7.56;99.65
49515;BME280;35415;47.870;16.058;2022-10-26T02:31:56;97691.75;;;7.57;99.57
49515;BME280;35415;47.870;16.058;2022-10-26T02:34:26;97693.81;;;7.54;99.62
49515;BME280;35415;47.870;16.058;2022-10-26T02:36:57;97694.06;;;7.53;100.00
49515;BME280;35415;47.870;16.058;2022-10-26T02:39:28;97691.63;;;7.51;100.00
49515;BME280;35415;47.870;16.058;2022-10-26T02:42:00;97697.78;;;7.52;99.85
49515;BME280;35415;47.870;16.058;2022-10-26T02:44:31;97688.63;;;7.48;99.94
49515;BME280;35415;47.870;16.058;2022-10-26T02:46:59;97688.03;;;7.46;99.86
49515;BME280;35415;47.870;16.058;2022-10-26T02:49:28;97699.22;;;7.43;99.88
49515;BME280;35415;47.870;16.058;2022-10-26T02:52:01;97697.59;;;7.42;100.00
49515;BME280;35415;47.870;16.058;2022-10-26T02:54:35;97636.16;;;6.95;100.00
49515;BME280;35415;47.870;16.058;2022-10-26T02:57:10;97695.75;;;7.31;100.00
49515;BME280;35415;47.870;16.058;2022-10-26T02:59:42;97701.69;;;7.33;100.00
49515;BME280;35415;47.870;16.058;2022-10-26T03:02:12;97639.16;;;6.99;100.00
49515;BME280;35415;47.870;16.058;2022-10-26T03:04:42;97695.41;;;7.27;100.00
49515;BME280;35415;47.870;16.058;2022-10-26T03:07:09;97697.38;;;7.32;100.00
49515;BME280;35415;47.870;16.058;2022-10-26T03:09:36;97690.06;;;7.27;100.00
49515;BME280;35415;47.870;16.058;2022-10-26T03:12:03;97695.09;;;7.23;100.00
49515;BME280;35415;47.870;16.058;2022-10-26T03:14:31;97691.59;;;7.23;100.00
49515;BME280;35415;47.870;16.058;2022-10-26T03:16:57;97691.81;;;7.21;100.00
49515;BME280;35415;47.870;16.058;2022-10-26T03:19:25;97692.63;;;7.22;100.00
49515;BME280;35415;47.870;16.058;2022-10-26T03:21:53;97687.75;;;7.19;100.00
49515;BME280;35415;47.870;16.058;2022-10-26T03:24:20;97696.81;;;7.18;100.00
49515;BME280;35415;47.870;16.058;2022-10-26T03:26:47;97679.63;;;7.14;100.00
49515;BME280;35415;47.870;16.058;2022-10-26T03:29:14;97697.28;;;7.15;100.00
49515;BME280;35415;47.870;16.058;2022-10-26T03:31:41;97693.22;;;7.12;100.00
49515;BME280;35415;47.870;16.058;2022-10-26T03:34:08;97685.44;;;7.11;100.00
49515;BME280;35415;47.870;16.058;2022-10-26T03:36:35;97684.38;;;7.12;100.00
49515;BME280;35415;47.870;16.058;2022-10-26T03:39:04;97688.34;;;7.09;100.00
49515;BME280;35415;47.870;16.058;2022-10-26T03:41:33;97674.41;;;7.07;100.00
49515;BME280;35415;47.870;16.058;2022-10-26T03:44:00;97676.47;;;7.05;100.00
49515;BME280;35415;47.870;16.058;2022-10-26T03:46:27;97680.00;;;7.06;100.00
49515;BME280;35415;47.870;16.058;2022-10-26T03:48:54;97671.59;;;7.02;100.00
49515;BME280;35415;47.870;16.058;2022-10-26T03:51:21;97674.28;;;7.02;100.00
49515;BME280;35415;47.870;16.058;2022-10-26T03:53:48;97674.03;;;7.04;100.00
49515;BME280;35415;47.870;16.058;2022-10-26T03:56:17;97666.50;;;7.01;100.00
49515;BME280;35415;47.870;16.058;2022-10-26T03:58:44;97662.75;;;7.02;100.00
49515;BME280;35415;47.870;16.058;2022-10-26T04:01:11;97665.91;;;6.99;100.00
49515;BME280;35415;47.870;16.058;2022-10-26T04:03:38;97667.78;;;6.98;100.00
49515;BME280;35415;47.870;16.058;2022-10-26T04:06:05;97671.25;;;6.99;100.00
49515;BME280;35415;47.870;16.058;2022-10-26T04:08:32;97668.25;;;6.95;100.00
49515;BME280;35415;47.870;16.058;2022-10-26T04:10:59;97670.69;;;6.97;100.00
49515;BME280;35415;47.870;16.058;2022-10-26T04:13:27;97658.25;;;6.90;100.00
49515;BME280;35415;47.870;16.058;2022-10-26T04:15:54;97672.31;;;6.98;100.00
49515;BME280;35415;47.870;16.058;2022-10-26T04:18:21;97676.03;;;6.97;100.00
49515;BME280;35415;47.870;16.058;2022-10-26T04:20:48;97671.84;;;7.01;100.00
49515;BME280;35415;47.870;16.058;2022-10-26T04:23:17;97670.78;;;7.02;100.00
49515;BME280;35415;47.870;16.058;2022-10-26T04:25:44;97672.53;;;6.96;100.00
49515;BME280;35415;47.870;16.058;2022-10-26T04:28:12;97662.31;;;6.93;100.00
49515;BME280;35415;47.870;16.058;2022-10-26T04:30:41;97686.97;;;6.95;100.00
49515;BME280;35415;47.870;16.058;2022-10-26T04:33:08;97676.50;;;6.93;100.00
49515;BME280;35415;47.870;16.058;2022-10-26T04:35:35;97670.91;;;6.95;100.00
49515;BME280;35415;47.870;16.058;2022-10-26T04:38:04;97672.78;;;6.94;100.00
49515;BME280;35415;47.870;16.058;2022-10-26T04:40:32;97677.09;;;6.96;100.00
49515;BME280;35415;47.870;16.058;2022-10-26T04:42:59;97668.16;;;6.90;100.00
49515;BME280;35415;47.870;16.058;2022-10-26T04:45:27;97682.09;;;6.92;100.00
49515;BME280;35415;47.870;16.058;2022-10-26T04:48:01;97668.97;;;6.90;100.00
49515;BME280;35415;47.870;16.058;2022-10-26T04:50:28;97665.69;;;6.88;100.00
49515;BME280;35415;47.870;16.058;2022-10-26T04:52:55;97662.44;;;6.86;100.00
49515;BME280;35415;47.870;16.058;2022-10-26T04:55:23;97624.09;;;6.69;100.00
49515;BME280;35415;47.870;16.058;2022-10-26T04:57:51;97649.19;;;6.80;100.00
49515;BME280;35415;47.870;16.058;2022-10-26T05:00:18;97655.47;;;6.85;100.00
49515;BME280;35415;47.870;16.058;2022-10-26T05:02:45;97657.31;;;6.85;100.00
49515;BME280;35415;47.870;16.058;2022-10-26T05:05:15;97661.03;;;6.84;100.00
49515;BME280;35415;47.870;16.058;2022-10-26T05:07:42;97645.59;;;6.74;100.00
49515;BME280;35415;47.870;16.058;2022-10-26T05:10:09;97658.50;;;6.89;100.00
49515;BME280;35415;47.870;16.058;2022-10-26T05:12:36;97667.34;;;6.89;100.00
49515;BME280;35415;47.870;16.058;2022-10-26T05:15:04;97676.75;;;6.92;100.00
49515;BME280;35415;47.870;16.058;2022-10-26T05:17:31;97668.72;;;6.92;100.00
49515;BME280;35415;47.870;16.058;2022-10-26T05:19:58;97675.22;;;6.96;100.00
49515;BME280;35415;47.870;16.058;2022-10-26T05:22:31;97669.28;;;6.94;100.00
49515;BME280;35415;47.870;16.058;2022-10-26T05:24:58;97665.00;;;6.93;100.00
49515;BME280;35415;47.870;16.058;2022-10-26T05:27:25;97666.63;;;6.94;100.00
49515;BME280;35415;47.870;16.058;2022-10-26T05:29:52;97627.81;;;6.68;100.00
49515;BME280;35415;47.870;16.058;2022-10-26T05:32:19;97680.81;;;6.94;100.00
49515;BME280;35415;47.870;16.058;2022-10-26T05:34:46;97684.06;;;6.97;100.00
49515;BME280;35415;47.870;16.058;2022-10-26T05:37:14;97671.88;;;6.89;100.00
49515;BME280;35415;47.870;16.058;2022-10-26T05:39:42;97680.09;;;6.99;100.00
49515;BME280;35415;47.870;16.058;2022-10-26T05:42:09;97688.69;;;7.01;100.00
49515;BME280;35415;47.870;16.058;2022-10-26T05:44:36;97692.19;;;7.02;100.00
49515;BME280;35415;47.870;16.058;2022-10-26T05:47:03;97666.16;;;6.85;100.00
49515;BME280;35415;47.870;16.058;2022-10-26T05:49:31;97694.63;;;7.03;100.00
49515;BME280;35415;47.870;16.058;2022-10-26T05:51:58;97700.34;;;7.07;100.00
49515;BME280;35415;47.870;16.058;2022-10-26T05:54:25;97705.69;;;7.07;100.00
49515;BME280;35415;47.870;16.058;2022-10-26T05:56:54;97704.06;;;7.06;100.00
49515;BME280;35415;47.870;16.058;2022-10-26T05:59:22;97707.66;;;7.11;100.00
49515;BME280;35415;47.870;16.058;2022-10-26T06:02:00;97709.28;;;7.12;100.00
49515;BME280;35415;47.870;16.058;2022-10-26T06:04:34;97683.59;;;6.88;100.00
49515;BME280;35415;47.870;16.058;2022-10-26T06:07:08;97711.25;;;7.17;100.00
49515;BME280;35415;47.870;16.058;2022-10-26T06:09:37;97713.69;;;7.18;100.00
49515;BME280;35415;47.870;16.058;2022-10-26T06:12:07;97742.06;;;7.19;100.00
49515;BME280;35415;47.870;16.058;2022-10-26T06:14:35;97724.38;;;7.18;100.00
49515;BME280;35415;47.870;16.058;2022-10-26T06:17:26;97752.44;;;7.28;100.00
49515;BME280;35415;47.870;16.058;2022-10-26T06:20:12;97743.59;;;7.27;100.00
49515;BME280;35415;47.870;16.058;2022-10-26T06:23:02;97756.81;;;7.34;100.00
49515;BME280;35415;47.870;16.058;2022-10-26T06:25:38;97750.19;;;7.36;100.00
49515;BME280;35415;47.870;16.058;2022-10-26T06:28:18;97748.91;;;7.39;100.00
49515;BME280;35415;47.870;16.058;2022-10-26T06:30:50;97745.19;;;7.40;100.00
49515;BME280;35415;47.870;16.058;2022-10-26T06:33:18;97746.03;;;7.40;100.00
49515;BME280;35415;47.870;16.058;2022-10-26T06:35:51;97752.53;;;7.44;100.00
49515;BME280;35415;47.870;16.058;2022-10-26T06:38:24;97731.81;;;7.40;100.00
49515;BME280;35415;47.870;16.058;2022-10-26T06:40:55;97676.94;;;7.14;100.00
49515;BME280;35415;47.870;16.058;2022-10-26T06:43:25;97747.16;;;7.56;100.00
49515;BME280;35415;47.870;16.058;2022-10-26T06:45:58;97736.78;;;7.60;100.00
49515;BME280;35415;47.870;16.058;2022-10-26T06:48:34;97739.56;;;7.65;100.00
49515;BME280;35415;47.870;16.058;2022-10-26T06:51:09;97738.84;;;7.69;100.00
49515;BME280;35415;47.870;16.058;2022-10-26T06:53:42;97724.88;;;7.67;100.00
49515;BME280;35415;47.870;16.058;2022-10-26T06:56:46;97669.81;;;7.31;100.00
49515;BME280;35415;47.870;16.058;2022-10-26T06:59:37;97667.59;;;7.40;100.00
49515;BME280;35415;47.870;16.058;2022-10-26T07:02:12;97662.13;;;7.35;100.00
49515;BME280;35415;47.870;16.058;2022-10-26T07:05:00;97704.97;;;7.75;100.00
49515;BME280;35415;47.870;16.058;2022-10-26T07:07:30;97736.91;;;7.93;100.00
49515;BME280;35415;47.870;16.058;2022-10-26T07:09:57;97699.25;;;7.71;100.00
49515;BME280;35415;47.870;16.058;2022-10-26T07:12:24;97748.59;;;8.04;100.00
49515;BME280;35415;47.870;16.058;2022-10-26T07:14:53;97729.56;;;7.89;100.00
49515;BME280;35415;47.870;16.058;2022-10-26T07:17:20;97762.94;;;8.09;100.00
49515;BME280;35415;47.870;16.058;2022-10-26T07:19:47;97749.53;;;8.09;100.00
49515;BME280;35415;47.870;16.058;2022-10-26T07:22:14;97762.22;;;8.14;100.00
49515;BME280;35415;47.870;16.058;2022-10-26T07:24:41;97770.09;;;8.21;100.00
49515;BME280;35415;47.870;16.058;2022-10-26T07:27:08;97762.88;;;8.21;100.00
49515;BME280;35415;47.870;16.058;2022-10-26T07:29:35;97768.91;;;8.28;100.00
49515;BME280;35415;47.870;16.058;2022-10-26T07:32:04;97718.09;;;8.05;100.00
49515;BME280;35415;47.870;16.058;2022-10-26T07:34:31;97762.94;;;8.38;100.00
49515;BME280;35415;47.870;16.058;2022-10-26T07:36:58;97723.97;;;8.19;100.00
49515;BME280;35415;47.870;16.058;2022-10-26T07:39:26;97748.59;;;8.44;100.00
49515;BME280;35415;47.870;16.058;2022-10-26T07:41:53;97754.28;;;8.48;100.00
49515;BME280;35415;47.870;16.058;2022-10-26T07:44:20;97754.28;;;8.48;100.00
49515;BME280;35415;47.870;16.058;2022-10-26T07:46:47;97752.97;;;8.50;100.00
49515;BME280;35415;47.870;16.058;2022-10-26T07:49:15;97761.34;;;8.54;100.00
49515;BME280;35415;47.870;16.058;2022-10-26T07:51:43;97771.94;;;8.60;100.00
49515;BME280;35415;47.870;16.058;2022-10-26T07:54:10;97773.31;;;8.63;100.00
49515;BME280;35415;47.870;16.058;2022-10-26T07:56:37;97776.31;;;8.66;100.00
49515;BME280;35415;47.870;16.058;2022-10-26T07:59:04;97766.25;;;8.57;100.00
49515;BME280;35415;47.870;16.058;2022-10-26T08:01:31;97778.00;;;8.72;100.00
49515;BME280;35415;47.870;16.058;2022-10-26T08:03:58;97777.56;;;8.76;100.00
49515;BME280;35415;47.870;16.058;2022-10-26T08:06:26;97780.56;;;8.79;100.00
49515;BME280;35415;47.870;16.058;2022-10-26T08:08:53;97764.59;;;8.72;100.00
49515;BME280;35415;47.870;16.058;2022-10-26T08:11:20;97780.38;;;8.86;100.00
49515;BME280;35415;47.870;16.058;2022-10-26T08:13:50;97758.59;;;8.82;100.00
49515;BME280;35415;47.870;16.058;2022-10-26T08:16:18;97769.50;;;8.92;100.00
49515;BME280;35415;47.870;16.058;2022-10-26T08:18:46;97764.72;;;8.94;100.00
49515;BME280;35415;47.870;16.058;2022-10-26T08:21:13;97763.97;;;8.99;100.00
49515;BME280;35415;47.870;16.058;2022-10-26T08:23:42;97753.47;;;8.97;100.00
49515;BME280;35415;47.870;16.058;2022-10-26T08:26:10;97717.38;;;8.71;100.00
49515;BME280;35415;47.870;16.058;2022-10-26T08:28:38;97773.81;;;9.10;100.00
49515;BME280;35415;47.870;16.058;2022-10-26T08:31:06;97773.25;;;9.08;100.00
49515;BME280;35415;47.870;16.058;2022-10-26T08:33:33;97759.81;;;9.08;100.00
49515;BME280;35415;47.870;16.058;2022-10-26T08:36:04;97707.31;;;8.79;100.00
49515;BME280;35415;47.870;16.058;2022-10-26T08:38:39;97706.66;;;8.71;100.00
49515;BME280;35415;47.870;16.058;2022-10-26T08:41:34;97780.34;;;9.36;100.00
49515;BME280;35415;47.870;16.058;2022-10-26T08:44:09;97757.94;;;9.25;100.00
49515;BME280;35415;47.870;16.058;2022-10-26T08:46:41;97730.94;;;9.15;100.00
49515;BME280;35415;47.870;16.058;2022-10-26T08:49:17;97716.63;;;9.10;100.00
49515;BME280;35415;47.870;16.058;2022-10-26T08:51:46;97778.75;;;9.57;100.00
49515;BME280;35415;47.870;16.058;2022-10-26T08:54:20;97785.31;;;9.66;100.00
49515;BME280;35415;47.870;16.058;2022-10-26T08:57:22;97781.63;;;9.72;100.00
49515;BME280;35415;47.870;16.058;2022-10-26T09:00:00;97719.09;;;9.33;100.00
49515;BME280;35415;47.870;16.058;2022-10-26T09:02:29;97793.38;;;9.88;100.00
49515;BME280;35415;47.870;16.058;2022-10-26T09:04:57;97798.50;;;9.89;100.00
49515;BME280;35415;47.870;16.058;2022-10-26T09:07:39;97728.56;;;9.57;100.00
49515;BME280;35415;47.870;16.058;2022-10-26T09:10:18;97730.19;;;9.58;100.00
49515;BME280;35415;47.870;16.058;2022-10-26T09:12:54;97760.03;;;9.84;100.00
49515;BME280;35415;47.870;16.058;2022-10-26T09:15:32;97800.75;;;10.19;100.00
49515;BME280;35415;47.870;16.058;2022-10-26T09:18:12;97811.91;;;10.28;100.00
49515;BME280;35415;47.870;16.058;2022-10-26T09:20:52;97802.22;;;10.27;100.00
49515;BME280;35415;47.870;16.058;2022-10-26T09:23:33;97764.66;;;10.10;100.00
49515;BME280;35415;47.870;16.058;2022-10-26T09:26:04;97751.94;;;10.06;100.00
49515;BME280;35415;47.870;16.058;2022-10-26T09:28:47;97832.63;;;10.54;100.00
49515;BME280;35415;47.870;16.058;2022-10-26T09:31:18;97753.25;;;10.03;99.97
49515;BME280;35415;47.870;16.058;2022-10-26T09:34:06;97813.50;;;10.51;100.00
49515;BME280;35415;47.870;16.058;2022-10-26T09:36:39;97831.97;;;10.69;99.78
49515;BME280;35415;47.870;16.058;2022-10-26T09:39:17;97822.75;;;10.60;99.71
49515;BME280;35415;47.870;16.058;2022-10-26T09:41:52;97829.31;;;10.74;99.46
49515;BME280;35415;47.870;16.058;2022-10-26T09:44:27;97787.66;;;10.50;99.68
49515;BME280;35415;47.870;16.058;2022-10-26T09:47:01;97806.09;;;10.63;99.14
49515;BME280;35415;47.870;16.058;2022-10-26T09:49:36;97777.97;;;10.49;99.29
49515;BME280;35415;47.870;16.058;2022-10-26T09:52:06;97788.53;;;10.55;99.52
49515;BME280;35415;47.870;16.058;2022-10-26T09:54:34;97795.59;;;10.62;99.45
49515;BME280;35415;47.870;16.058;2022-10-26T09:57:01;97846.06;;;11.08;99.93
49515;BME280;35415;47.870;16.058;2022-10-26T09:59:38;97786.28;;;10.74;99.79
49515;BME280;35415;47.870;16.058;2022-10-26T10:02:34;97778.53;;;10.78;99.15
49515;BME280;35415;47.870;16.058;2022-10-26T10:05:20;97814.06;;;11.12;98.92
49515;BME280;35415;47.870;16.058;2022-10-26T10:07:48;97812.19;;;11.12;99.09
49515;BME280;35415;47.870;16.058;2022-10-26T10:10:17;97837.91;;;11.30;98.41
49515;BME280;35415;47.870;16.058;2022-10-26T10:12:49;97838.78;;;11.41;98.45
49515;BME280;35415;47.870;16.058;2022-10-26T10:15:20;97849.66;;;11.56;98.13
49515;BME280;35415;47.870;16.058;2022-10-26T10:17:52;97801.56;;;11.33;98.40
49515;BME280;35415;47.870;16.058;2022-10-26T10:20:22;97822.69;;;11.51;97.87
49515;BME280;35415;47.870;16.058;2022-10-26T10:22:57;97772.75;;;11.33;97.44
49515;BME280;35415;47.870;16.058;2022-10-26T10:25:35;97809.03;;;11.63;97.04
49515;BME280;35415;47.870;16.058;2022-10-26T10:28:20;97824.78;;;11.81;97.17
49515;BME280;35415;47.870;16.058;2022-10-26T10:30:53;97763.97;;;11.53;96.42
49515;BME280;35415;47.870;16.058;2022-10-26T10:33:32;97828.94;;;12.04;96.41
49515;BME280;35415;47.870;16.058;2022-10-26T10:36:02;97759.66;;;11.57;95.80
49515;BME280;35415;47.870;16.058;2022-10-26T10:38:36;97836.28;;;12.14;95.79
49515;BME280;35415;47.870;16.058;2022-10-26T10:41:05;97823.59;;;12.14;95.96
49515;BME280;35415;47.870;16.058;2022-10-26T10:43:45;97782.22;;;11.83;95.61
49515;BME280;35415;47.870;16.058;2022-10-26T10:46:20;97812.00;;;12.14;95.15
49515;BME280;35415;47.870;16.058;2022-10-26T10:48:53;97767.41;;;11.91;95.28
49515;BME280;35415;47.870;16.058;2022-10-26T10:51:23;97765.56;;;12.01;95.08
49515;BME280;35415;47.870;16.058;2022-10-26T10:53:53;97803.97;;;12.34;94.75
49515;BME280;35415;47.870;16.058;2022-10-26T10:56:30;97827.22;;;12.55;94.48
49515;BME280;35415;47.870;16.058;2022-10-26T10:59:21;97828.31;;;12.59;94.51
49515;BME280;35415;47.870;16.058;2022-10-26T11:02:16;97777.00;;;12.34;94.05
49515;BME280;35415;47.870;16.058;2022-10-26T11:05:21;97797.84;;;12.64;94.21
49515;BME280;35415;47.870;16.058;2022-10-26T11:07:56;97780.53;;;12.50;93.38
49515;BME280;35415;47.870;16.058;2022-10-26T11:10:29;97771.91;;;12.53;93.21
49515;BME280;35415;47.870;16.058;2022-10-26T11:13:01;97750.03;;;12.59;92.77
49515;BME280;35415;47.870;16.058;2022-10-26T11:15:32;97799.75;;;12.89;92.52
49515;BME280;35415;47.870;16.058;2022-10-26T11:18:06;97799.75;;;12.99;92.49
49515;BME280;35415;47.870;16.058;2022-10-26T11:20:38;97809.75;;;13.14;92.12
49515;BME280;35415;47.870;16.058;2022-10-26T11:23:10;97805.72;;;13.16;91.82
49515;BME280;35415;47.870;16.058;2022-10-26T11:25:45;97817.06;;;13.39;92.14
49515;BME280;35415;47.870;16.058;2022-10-26T11:28:19;97807.88;;;13.40;91.92
49515;BME280;35415;47.870;16.058;2022-10-26T11:30:52;97804.38;;;13.34;91.78
49515;BME280;35415;47.870;16.058;2022-10-26T11:33:27;97814.09;;;13.50;91.61
49515;BME280;35415;47.870;16.058;2022-10-26T11:35:58;97766.28;;;13.31;91.44
49515;BME280;35415;47.870;16.058;2022-10-26T11:38:32;97773.31;;;13.32;91.19
49515;BME280;35415;47.870;16.058;2022-10-26T11:41:03;97784.88;;;13.52;91.18
49515;BME280;35415;47.870;16.058;2022-10-26T11:43:36;97787.28;;;13.59;90.98
49515;BME280;35415;47.870;16.058;2022-10-26T11:46:09;97768.13;;;13.55;91.13
49515;BME280;35415;47.870;16.058;2022-10-26T11:48:48;97810.22;;;13.87;89.78
49515;BME280;35415;47.870;16.058;2022-10-26T11:51:21;97753.78;;;13.65;89.82
49515;BME280;35415;47.870;16.058;2022-10-26T11:53:50;97789.91;;;13.95;89.45
49515;BME280;35415;47.870;16.058;2022-10-26T11:56:24;97799.84;;;14.09;89.69
49515;BME280;35415;47.870;16.058;2022-10-26T11:58:53;97777.19;;;14.00;88.32
49515;BME280;35415;47.870;16.058;2022-10-26T12:01:22;97805.72;;;14.27;88.41
49515;BME280;35415;47.870;16.058;2022-10-26T12:03:53;97807.38;;;14.28;88.39
49515;BME280;35415;47.870;16.058;2022-10-26T12:06:24;97821.56;;;14.59;87.99
49515;BME280;35415;47.870;16.058;2022-10-26T12:08:56;97812.34;;;14.65;87.05
49515;BME280;35415;47.870;16.058;2022-10-26T12:11:35;97772.06;;;14.43;87.61
49515;BME280;35415;47.870;16.058;2022-10-26T12:14:18;97754.78;;;14.39;87.61
49515;BME280;35415;47.870;16.058;2022-10-26T12:16:50;97826.78;;;14.89;88.22
49515;BME280;35415;47.870;16.058;2022-10-26T12:19:27;97808.91;;;14.88;86.13
49515;BME280;35415;47.870;16.058;2022-10-26T12:21:58;97810.53;;;14.89;87.26
49515;BME280;35415;47.870;16.058;2022-10-26T12:24:28;97824.50;;;15.07;86.14
49515;BME280;35415;47.870;16.058;2022-10-26T12:26:58;97827.41;;;15.15;87.63
49515;BME280;35415;47.870;16.058;2022-10-26T12:29:28;97793.16;;;14.95;87.31
49515;BME280;35415;47.870;16.058;2022-10-26T12:31:56;97804.47;;;15.02;86.91
49515;BME280;35415;47.870;16.058;2022-10-26T12:35:01;97805.75;;;15.10;87.32
49515;BME280;35415;47.870;16.058;2022-10-26T12:37:32;97809.56;;;15.14;87.16
49515;BME280;35415;47.870;16.058;2022-10-26T12:43:36;97790.88;;;15.08;87.30
49515;BME280;35415;47.870;16.058;2022-10-26T12:46:42;97837.47;;;15.44;87.42
49515;BME280;35415;47.870;16.058;2022-10-26T12:52:31;97842.53;;;15.55;88.05
49515;BME280;35415;47.870;16.058;2022-10-26T12:55:33;97778.59;;;15.20;88.01
49515;BME280;35415;47.870;16.058;2022-10-26T13:02:18;97772.88;;;15.22;87.65
49515;BME280;35415;47.870;16.058;2022-10-26T13:08:39;97827.16;;;15.75;87.89
49515;BME280;35415;47.870;16.058;2022-10-26T13:11:26;97819.03;;;15.75;87.75
49515;BME280;35415;47.870;16.058;2022-10-26T13:14:18;97814.78;;;15.69;87.22
49515;BME280;35415;47.870;16.058;2022-10-26T13:16:46;97835.09;;;15.95;87.62
49515;BME280;35415;47.870;16.058;2022-10-26T13:19:26;97806.00;;;15.77;87.62
49515;BME280;35415;47.870;16.058;2022-10-26T13:21:57;97832.72;;;15.88;86.97
49515;BME280;35415;47.870;16.058;2022-10-26T13:24:30;97811.72;;;15.75;87.42
49515;BME280;35415;47.870;16.058;2022-10-26T13:32:54;97842.91;;;16.02;86.72
49515;BME280;35415;47.870;16.058;2022-10-26T13:35:23;97841.75;;;16.08;87.22
49515;BME280;35415;47.870;16.058;2022-10-26T13:37:53;97857.97;;;16.13;86.64
49515;BME280;35415;47.870;16.058;2022-10-26T13:40:26;97801.16;;;15.74;86.52